Time;durP1;ratioP1;P1;durP2;ratioP2;P2;SDS_P1;SDS_P2;PMS_P1;PMS_P2;Temp;Humidity;BMP_temperature;BMP_pressure;BME280_temperature;BME280_humidity;BME280_pressure;Samples;Min_cycle;Max_cycle;Signal;HPM_P1;HPM_P2
2021/09/21 04:02:14;;;;;;;7.40;6.63;;;9.90;99.90;;;;;;5165309;23;20736;-69
2021/09/21 04:04:41;;;;;;;6.88;6.22;;;9.90;99.90;;;;;;4937035;29;20556;-69
2021/09/21 04:07:07;;;;;;;6.85;6.15;;;9.90;99.90;;;;;;4936353;29;20262;-69
2021/09/21 04:09:34;;;;;;;7.22;6.47;;;10.00;99.90;;;;;;4936943;29;20273;-69
2021/09/21 04:12:01;;;;;;;7.63;6.88;;;10.00;99.90;;;;;;4945633;28;20222;-69
2021/09/21 04:14:31;;;;;;;7.57;6.85;;;10.00;99.90;;;;;;4937296;29;20268;-69
2021/09/21 04:16:57;;;;;;;7.80;7.00;;;10.00;99.90;;;;;;4946722;29;20202;-70
2021/09/21 04:19:25;;;;;;;7.72;6.65;;;10.00;99.90;;;;;;4936950;29;20280;-71
2021/09/21 04:21:52;;;;;;;10.15;7.40;;;10.00;99.90;;;;;;4947381;28;20230;-71
2021/09/21 04:24:19;;;;;;;6.90;6.30;;;10.00;99.90;;;;;;4936505;29;20210;-71
2021/09/21 04:26:46;;;;;;;10.85;7.55;;;10.10;99.90;;;;;;4947482;29;20337;-70
2021/09/21 04:29:12;;;;;;;8.93;6.20;;;10.10;99.90;;;;;;4936476;29;20698;-69
2021/09/21 04:31:42;;;;;;;6.80;6.20;;;10.10;99.90;;;;;;4946383;29;20229;-69
2021/09/21 04:34:12;;;;;;;46.08;26.80;;;10.10;99.90;;;;;;4917494;29;20207;-70
2021/09/21 04:36:40;;;;;;;32.20;16.90;;;10.10;99.90;;;;;;4939217;29;20217;-69
2021/09/21 04:39:07;;;;;;;13.07;10.77;;;10.10;99.90;;;;;;4953100;28;20272;-71
2021/09/21 04:41:34;;;;;;;30.23;18.85;;;10.10;99.90;;;;;;4939926;28;20701;-69
2021/09/21 04:44:01;;;;;;;34.00;20.83;;;10.20;99.90;;;;;;4953566;29;20557;-69
2021/09/21 04:46:27;;;;;;;13.00;11.10;;;10.20;99.90;;;;;;4942982;28;20206;-69
2021/09/21 04:48:54;;;;;;;11.88;9.45;;;10.20;99.90;;;;;;4945914;29;20233;-69
2021/09/21 04:51:21;;;;;;;13.60;10.82;;;10.20;99.90;;;;;;4944903;28;20312;-68
2021/09/21 04:53:49;;;;;;;7.22;6.53;;;10.20;99.90;;;;;;4950479;29;20216;-69
2021/09/21 04:56:15;;;;;;;8.07;7.25;;;10.20;99.90;;;;;;4945972;28;20206;-69
2021/09/21 04:58:42;;;;;;;7.32;6.72;;;10.20;99.90;;;;;;4941152;29;20305;-69
2021/09/21 05:01:09;;;;;;;7.63;6.88;;;10.20;99.90;;;;;;4945130;28;20255;-68
2021/09/21 05:03:35;;;;;;;7.63;6.82;;;10.20;99.90;;;;;;4954480;28;20265;-70
2021/09/21 05:06:03;;;;;;;12.00;6.82;;;10.20;99.90;;;;;;4953193;28;20272;-70
2021/09/21 05:08:29;;;;;;;7.47;6.75;;;10.20;99.90;;;;;;4948261;28;20280;-70
2021/09/21 05:10:57;;;;;;;6.47;5.88;;;10.20;99.90;;;;;;4936510;29;20265;-70
2021/09/21 05:13:24;;;;;;;7.00;6.40;;;10.20;99.90;;;;;;4935201;29;20269;-70
2021/09/21 05:15:51;;;;;;;8.85;6.88;;;10.20;99.90;;;;;;4936054;29;20264;-70
2021/09/21 05:18:17;;;;;;;8.18;6.57;;;10.20;99.90;;;;;;4938848;29;20231;-71
2021/09/21 05:20:44;;;;;;;9.40;6.97;;;10.20;99.90;;;;;;4952782;28;20236;-70
2021/09/21 05:23:11;;;;;;;7.93;6.35;;;10.20;99.90;;;;;;4931452;28;20222;-71
2021/09/21 05:25:38;;;;;;;6.63;6.13;;;10.30;99.90;;;;;;4939071;29;20205;-71
2021/09/21 05:28:06;;;;;;;7.38;6.68;;;10.30;99.90;;;;;;4951807;28;20202;-70
2021/09/21 05:30:33;;;;;;;7.80;7.05;;;10.30;99.90;;;;;;4937301;29;20233;-71
2021/09/21 05:33:00;;;;;;;9.40;7.50;;;10.30;99.90;;;;;;4953880;28;20221;-70
2021/09/21 05:35:26;;;;;;;7.65;6.90;;;10.40;99.90;;;;;;4952765;28;20202;-71
2021/09/21 05:37:53;;;;;;;8.45;7.40;;;10.40;99.90;;;;;;4946642;28;20671;-72
2021/09/21 05:40:20;;;;;;;8.15;7.35;;;10.40;99.90;;;;;;4928965;28;20679;-74
2021/09/21 05:42:47;;;;;;;9.48;7.97;;;10.50;99.90;;;;;;4929660;29;20294;-72
2021/09/21 05:45:15;;;;;;;7.85;7.07;;;10.50;99.90;;;;;;4931021;29;20635;-72
2021/09/21 05:47:43;;;;;;;9.63;7.53;;;10.40;99.90;;;;;;4933762;29;20722;-72
2021/09/21 05:50:12;;;;;;;8.55;7.47;;;10.50;99.90;;;;;;4935238;29;20214;-72
2021/09/21 05:52:39;;;;;;;8.02;7.22;;;10.50;99.90;;;;;;4934104;28;20301;-73
2021/09/21 05:55:06;;;;;;;8.27;7.22;;;10.50;99.90;;;;;;4934188;29;20221;-72
2021/09/21 05:57:33;;;;;;;8.18;7.30;;;10.50;99.90;;;;;;4934970;29;20236;-72
2021/09/21 06:00:00;;;;;;;8.68;7.85;;;10.60;99.90;;;;;;4934865;29;20217;-72
2021/09/21 06:02:28;;;;;;;8.45;7.75;;;10.70;99.90;;;;;;4928463;28;20233;-72
2021/09/21 06:04:54;;;;;;;9.93;7.60;;;10.70;99.90;;;;;;4929332;29;20238;-72
2021/09/21 06:07:21;;;;;;;11.98;10.00;;;10.70;99.90;;;;;;4933928;29;20625;-72
2021/09/21 06:09:48;;;;;;;8.15;7.32;;;10.80;99.90;;;;;;4939548;29;20212;-71
2021/09/21 06:12:14;;;;;;;9.93;6.88;;;10.80;99.90;;;;;;4951202;28;20225;-72
2021/09/21 06:14:41;;;;;;;8.40;7.60;;;10.80;99.90;;;;;;4939062;29;20213;-72
2021/09/21 06:17:08;;;;;;;8.50;7.70;;;10.90;99.90;;;;;;4949879;29;20201;-73
2021/09/21 06:19:36;;;;;;;8.48;7.60;;;10.90;99.90;;;;;;4938301;29;20678;-72
2021/09/21 06:22:03;;;;;;;8.20;7.60;;;10.90;99.90;;;;;;4941024;29;20229;-75
2021/09/21 06:24:30;;;;;;;9.10;8.20;;;11.00;99.90;;;;;;4935436;29;20300;-72
2021/09/21 06:26:57;;;;;;;9.18;8.27;;;11.00;99.90;;;;;;4938028;29;20278;-72
2021/09/21 06:29:23;;;;;;;9.63;8.73;;;11.10;99.90;;;;;;4947470;29;20249;-72
2021/09/21 06:31:50;;;;;;;8.93;8.13;;;11.10;99.90;;;;;;4935170;28;20298;-75
2021/09/21 06:34:17;;;;;;;8.10;7.30;;;11.20;99.90;;;;;;4916627;29;20663;-73
2021/09/21 06:36:45;;;;;;;10.13;8.00;;;11.20;99.90;;;;;;4939097;29;20260;-75
2021/09/21 06:39:11;;;;;;;8.30;7.63;;;11.20;99.90;;;;;;4939633;28;20536;-76
2021/09/21 06:41:38;;;;;;;9.32;6.82;;;11.30;99.90;;;;;;4944376;29;20276;-74
2021/09/21 06:44:05;;;;;;;7.72;7.03;;;11.40;99.90;;;;;;4958516;29;20209;-74
2021/09/21 06:46:32;;;;;;;10.95;7.85;;;11.40;99.90;;;;;;4940900;28;20249;-76
2021/09/21 06:48:59;;;;;;;10.48;7.25;;;11.40;99.90;;;;;;4943867;29;20194;-75
2021/09/21 06:51:26;;;;;;;8.32;7.43;;;11.50;99.90;;;;;;4952592;28;20248;-76
2021/09/21 06:53:54;;;;;;;7.30;6.70;;;11.50;99.90;;;;;;4955178;28;20240;-75
2021/09/21 06:56:25;;;;;;;8.10;7.20;;;11.60;99.90;;;;;;4940295;29;20217;-76
2021/09/21 06:58:52;;;;;;;7.97;7.18;;;11.70;99.90;;;;;;4948415;29;20224;-77
2021/09/21 07:01:19;;;;;;;7.75;7.15;;;11.70;99.90;;;;;;4957848;28;20236;-75
2021/09/21 07:03:46;;;;;;;7.33;6.73;;;11.80;99.90;;;;;;4955132;28;20208;-76
2021/09/21 07:06:13;;;;;;;8.30;7.63;;;11.90;99.90;;;;;;4945997;29;20476;-75
2021/09/21 07:08:40;;;;;;;7.43;6.22;;;12.00;99.90;;;;;;4951359;28;20457;-75
2021/09/21 07:11:08;;;;;;;6.73;6.17;;;12.00;99.90;;;;;;4943939;28;20633;-74
2021/09/21 07:13:35;;;;;;;9.40;7.43;;;12.10;99.90;;;;;;4943609;28;20472;-76
2021/09/21 07:16:02;;;;;;;7.43;6.70;;;12.10;99.90;;;;;;4937754;29;20620;-74
2021/09/21 07:18:28;;;;;;;9.40;6.97;;;12.20;99.90;;;;;;4939796;29;20489;-74
2021/09/21 07:20:55;;;;;;;7.87;7.17;;;12.30;99.90;;;;;;4942120;28;20482;-75
2021/09/21 07:23:21;;;;;;;6.73;6.13;;;12.40;99.90;;;;;;4939930;29;20473;-75
2021/09/21 07:25:48;;;;;;;7.30;6.70;;;12.40;99.90;;;;;;4946884;28;20537;-74
2021/09/21 07:28:16;;;;;;;7.13;6.63;;;12.50;99.90;;;;;;4949611;29;20517;-75
2021/09/21 07:30:43;;;;;;;7.27;6.70;;;12.70;99.90;;;;;;4948153;28;20565;-74
2021/09/21 07:33:13;;;;;;;6.50;6.07;;;12.80;99.90;;;;;;4947398;29;20489;-73
2021/09/21 07:35:40;;;;;;;6.30;5.80;;;12.90;99.90;;;;;;4950942;28;20498;-74
2021/09/21 07:38:07;;;;;;;7.00;6.40;;;13.20;99.90;;;;;;4952526;29;20467;-73
2021/09/21 07:40:35;;;;;;;7.47;6.77;;;13.30;99.90;;;;;;4937453;29;20485;-74
2021/09/21 07:43:02;;;;;;;7.23;6.60;;;13.50;99.90;;;;;;4950159;29;20457;-74
2021/09/21 07:45:30;;;;;;;5.50;5.20;;;13.60;99.90;;;;;;4952009;28;20485;-73
2021/09/21 07:47:57;;;;;;;6.23;5.73;;;13.80;99.90;;;;;;4955364;28;20465;-74
2021/09/21 07:50:25;;;;;;;6.97;6.47;;;13.80;99.90;;;;;;4952722;28;20933;-72
2021/09/21 07:52:52;;;;;;;6.57;5.90;;;13.90;99.90;;;;;;4945683;28;20458;-74
2021/09/21 07:55:19;;;;;;;6.03;5.60;;;13.80;99.90;;;;;;4930606;28;20462;-74
2021/09/21 07:57:46;;;;;;;6.07;5.57;;;13.80;99.90;;;;;;4936511;28;20478;-73
2021/09/21 08:00:15;;;;;;;5.10;4.70;;;13.80;99.90;;;;;;4937066;29;20846;-73
2021/09/21 08:02:44;;;;;;;5.70;5.27;;;13.80;99.90;;;;;;4931399;29;20474;-74
2021/09/21 08:05:11;;;;;;;5.80;5.40;;;13.80;99.90;;;;;;4939103;29;20462;-75
2021/09/21 08:07:40;;;;;;;5.73;5.23;;;13.80;99.90;;;;;;4940949;28;20473;-75
2021/09/21 08:10:08;;;;;;;6.00;5.60;;;13.80;99.90;;;;;;4938175;29;20545;-74
2021/09/21 08:12:35;;;;;;;5.83;5.20;;;13.90;99.90;;;;;;4948181;29;20867;-73
2021/09/21 08:15:02;;;;;;;6.70;5.40;;;14.00;99.90;;;;;;4947470;28;20454;-73
2021/09/21 08:17:28;;;;;;;5.50;5.10;;;14.10;99.90;;;;;;4935986;28;20902;-73
2021/09/21 08:19:57;;;;;;;5.70;5.30;;;14.30;99.90;;;;;;4937405;29;20474;-75
2021/09/21 08:22:26;;;;;;;4.53;4.13;;;14.50;99.90;;;;;;4936154;29;20473;-71
2021/09/21 08:24:54;;;;;;;6.00;5.27;;;14.60;99.90;;;;;;4917818;29;20462;-73
2021/09/21 08:27:21;;;;;;;5.33;4.90;;;14.70;99.90;;;;;;4917652;29;20554;-73
2021/09/21 08:29:48;;;;;;;5.30;4.80;;;14.60;99.90;;;;;;4917676;29;20538;-73
2021/09/21 08:32:14;;;;;;;5.87;5.50;;;14.60;99.90;;;;;;4916425;29;20494;-73
2021/09/21 08:34:41;;;;;;;6.30;5.77;;;14.50;99.90;;;;;;4936811;29;20953;-73
2021/09/21 08:37:10;;;;;;;5.87;5.37;;;14.50;99.90;;;;;;4936189;29;20469;-73
2021/09/21 08:39:36;;;;;;;6.33;5.87;;;14.40;99.90;;;;;;4951323;28;20551;-71
2021/09/21 08:42:03;;;;;;;6.10;5.50;;;14.30;99.90;;;;;;4942816;28;20602;-72
2021/09/21 08:44:30;;;;;;;5.80;5.40;;;14.20;99.90;;;;;;4939856;28;20501;-71
2021/09/21 08:46:57;;;;;;;5.37;5.07;;;14.00;99.90;;;;;;4948250;29;20465;-73
2021/09/21 08:49:23;;;;;;;5.20;4.80;;;13.70;99.90;;;;;;4954636;28;20453;-72
2021/09/21 08:51:50;;;;;;;6.20;5.60;;;13.50;99.90;;;;;;4949477;28;20552;-72
2021/09/21 08:54:18;;;;;;;5.90;5.40;;;13.50;99.90;;;;;;4937700;28;20993;-73
2021/09/21 08:56:46;;;;;;;5.10;4.70;;;13.30;99.90;;;;;;4946422;29;20830;-74
2021/09/21 08:59:13;;;;;;;4.97;4.63;;;13.30;99.90;;;;;;4940343;29;20483;-72
2021/09/21 09:01:41;;;;;;;6.07;5.20;;;13.20;99.90;;;;;;4937822;28;20498;-72
2021/09/21 09:04:09;;;;;;;5.80;5.30;;;13.10;99.90;;;;;;4945160;29;20484;-71
2021/09/21 09:06:43;;;;;;;6.83;6.10;;;13.00;99.90;;;;;;4944608;28;20469;-72
2021/09/21 09:09:14;;;;;;;6.03;5.60;;;13.00;99.90;;;;;;4942440;28;20601;-72
2021/09/21 09:11:42;;;;;;;7.17;6.47;;;13.10;99.90;;;;;;4942095;28;21041;-72
2021/09/21 09:14:18;;;;;;;15.03;7.63;;;13.10;99.90;;;;;;4941995;29;20509;-73
2021/09/21 09:16:45;;;;;;;6.93;6.43;;;13.10;99.90;;;;;;4935394;29;20465;-72
2021/09/21 09:19:13;;;;;;;6.50;5.87;;;13.00;99.90;;;;;;4944176;29;20531;-73
2021/09/21 09:21:43;;;;;;;7.23;6.70;;;12.90;99.90;;;;;;4936451;28;20596;-75
2021/09/21 09:24:10;;;;;;;8.17;6.80;;;12.90;99.90;;;;;;4935175;29;20462;-75
2021/09/21 09:26:39;;;;;;;7.27;6.57;;;12.80;99.90;;;;;;4935576;29;20963;-75
2021/09/21 09:29:10;;;;;;;6.70;6.20;;;12.80;99.90;;;;;;4935644;28;20469;-75
2021/09/21 09:31:38;;;;;;;6.80;6.20;;;12.90;99.90;;;;;;4935073;29;20512;-75
2021/09/21 09:34:07;;;;;;;8.13;6.20;;;12.90;99.90;;;;;;4935652;29;20470;-75
2021/09/21 09:36:47;;;;;;;6.83;6.33;;;12.90;99.90;;;;;;4935632;29;20473;-75
2021/09/21 09:39:14;;;;;;;7.63;6.80;;;13.00;99.90;;;;;;4935599;29;20481;-75
2021/09/21 09:41:43;;;;;;;8.10;6.83;;;13.00;99.90;;;;;;4935079;29;20520;-75
2021/09/21 09:44:13;;;;;;;6.80;6.20;;;13.00;99.90;;;;;;4935587;29;20485;-75
2021/09/21 09:46:49;;;;;;;7.37;6.77;;;12.90;99.90;;;;;;4934732;29;20461;-75
2021/09/21 09:49:21;;;;;;;8.90;6.50;;;12.80;99.90;;;;;;4935426;29;20465;-75
2021/09/21 09:51:49;;;;;;;7.40;6.70;;;12.90;99.90;;;;;;4935060;29;20565;-75
2021/09/21 09:54:17;;;;;;;8.23;6.80;;;12.80;99.90;;;;;;4931977;29;20517;-76
2021/09/21 09:56:45;;;;;;;7.43;6.75;;;12.90;99.90;;;;;;4935476;29;20466;-73
2021/09/21 09:59:14;;;;;;;6.20;5.60;;;12.90;99.90;;;;;;4937378;29;20238;-73
2021/09/21 10:01:41;;;;;;;7.57;6.93;;;13.00;99.90;;;;;;4938422;29;20515;-72
2021/09/21 10:04:08;;;;;;;9.93;6.87;;;13.00;99.90;;;;;;4938968;29;20469;-72
2021/09/21 10:06:35;;;;;;;7.37;6.67;;;13.00;99.90;;;;;;4937379;29;20491;-72
2021/09/21 10:09:02;;;;;;;7.33;6.80;;;13.10;99.90;;;;;;4935866;29;20465;-72
2021/09/21 10:11:30;;;;;;;7.30;6.50;;;13.20;99.90;;;;;;4938923;29;20505;-72
2021/09/21 10:13:57;;;;;;;8.40;7.50;;;13.10;99.90;;;;;;4938979;29;21009;-72
2021/09/21 10:16:26;;;;;;;7.07;6.43;;;13.00;99.90;;;;;;4937911;29;20532;-72
2021/09/21 10:18:54;;;;;;;9.23;7.07;;;13.00;99.90;;;;;;4939393;29;20473;-72
2021/09/21 10:21:31;;;;;;;7.23;6.63;;;13.10;99.90;;;;;;4938511;29;20484;-72
2021/09/21 10:24:02;;;;;;;6.90;6.30;;;13.10;99.90;;;;;;4938612;29;20981;-72
2021/09/21 10:26:30;;;;;;;7.27;6.20;;;13.00;99.90;;;;;;4938727;29;20812;-72
2021/09/21 10:28:58;;;;;;;7.67;6.93;;;13.00;99.90;;;;;;4939227;29;20465;-72
2021/09/21 10:31:28;;;;;;;8.13;7.30;;;13.00;99.90;;;;;;4937412;29;20486;-72
2021/09/21 10:33:54;;;;;;;8.90;7.63;;;13.10;99.90;;;;;;4938809;29;20469;-72
2021/09/21 10:36:23;;;;;;;8.00;6.50;;;13.20;99.90;;;;;;4938792;29;20859;-73
2021/09/21 10:38:57;;;;;;;7.83;7.10;;;13.30;99.90;;;;;;4938698;29;20472;-72
2021/09/21 10:41:24;;;;;;;8.17;7.10;;;13.30;99.90;;;;;;4938307;29;20496;-72
2021/09/21 10:44:05;;;;;;;8.10;7.33;;;13.40;99.90;;;;;;4938145;29;20470;-73
2021/09/21 10:46:45;;;;;;;7.80;7.00;;;13.60;99.90;;;;;;4937655;29;20567;-74
2021/09/21 10:49:26;;;;;;;8.00;7.30;;;13.70;99.90;;;;;;4938438;29;20505;-74
2021/09/21 10:51:55;;;;;;;7.23;6.63;;;13.80;99.90;;;;;;4938587;29;20485;-73
2021/09/21 10:54:30;;;;;;;6.53;6.03;;;14.00;99.90;;;;;;4938742;29;20473;-73
2021/09/21 10:57:05;;;;;;;7.33;6.40;;;14.20;99.90;;;;;;4937997;29;20450;-74
2021/09/21 10:59:31;;;;;;;6.40;5.90;;;14.50;99.90;;;;;;4938460;29;20473;-74
2021/09/21 11:02:01;;;;;;;6.63;6.10;;;14.70;99.90;;;;;;4937973;29;20902;-73
2021/09/21 11:04:38;;;;;;;5.50;5.03;;;14.80;99.90;;;;;;4938755;29;20505;-73
2021/09/21 11:07:05;;;;;;;6.40;5.90;;;14.80;99.90;;;;;;4938303;29;20512;-73
2021/09/21 11:09:31;;;;;;;5.67;5.17;;;14.90;99.90;;;;;;4938103;29;20466;-74
2021/09/21 11:12:05;;;;;;;5.70;5.30;;;15.00;99.90;;;;;;4937811;29;20505;-73
2021/09/21 11:14:32;;;;;;;5.87;5.20;;;15.00;99.90;;;;;;4937946;29;20520;-73
2021/09/21 11:17:00;;;;;;;11.33;5.10;;;15.10;99.90;;;;;;4938282;29;20520;-73
2021/09/21 11:19:29;;;;;;;7.93;6.00;;;15.20;99.90;;;;;;4938134;29;20564;-73
2021/09/21 11:22:01;;;;;;;6.17;5.57;;;15.30;99.90;;;;;;4937243;29;20556;-73
2021/09/21 11:24:27;;;;;;;5.10;4.80;;;15.40;99.90;;;;;;4938316;29;20465;-73
2021/09/21 11:26:58;;;;;;;5.30;4.90;;;15.60;99.90;;;;;;4937999;29;20536;-73
2021/09/21 11:29:25;;;;;;;5.03;4.63;;;15.70;99.90;;;;;;4938311;29;20470;-73
2021/09/21 11:31:52;;;;;;;5.00;4.53;;;15.70;99.90;;;;;;4938812;29;20490;-74
2021/09/21 11:34:21;;;;;;;4.00;3.90;;;15.80;99.90;;;;;;4938110;29;20478;-73
2021/09/21 11:36:50;;;;;;;3.90;3.77;;;15.90;99.90;;;;;;4938037;29;20469;-73
2021/09/21 11:39:17;;;;;;;4.70;4.40;;;15.90;99.90;;;;;;4937582;29;20946;-74
2021/09/21 11:41:44;;;;;;;3.97;3.77;;;16.00;99.90;;;;;;4937437;29;20485;-73
2021/09/21 11:44:11;;;;;;;3.67;3.57;;;16.00;99.90;;;;;;4939052;29;20473;-73
2021/09/21 11:46:37;;;;;;;4.40;4.20;;;16.00;99.90;;;;;;4938618;29;20529;-73
2021/09/21 11:49:04;;;;;;;4.50;3.70;;;16.10;99.90;;;;;;4938169;29;20470;-73
2021/09/21 11:51:35;;;;;;;3.30;3.20;;;16.10;99.90;;;;;;4938133;29;20517;-73
2021/09/21 11:54:01;;;;;;;3.33;3.23;;;16.20;99.90;;;;;;4938174;29;20457;-73
2021/09/21 11:56:28;;;;;;;3.53;3.40;;;16.30;99.90;;;;;;4937967;29;20524;-73
2021/09/21 11:58:58;;;;;;;3.80;3.53;;;16.40;99.90;;;;;;4937975;29;20572;-73
2021/09/21 12:01:26;;;;;;;3.43;3.23;;;16.50;99.90;;;;;;4936949;29;20493;-73
2021/09/21 12:03:53;;;;;;;4.37;4.10;;;16.50;99.90;;;;;;4937592;29;20874;-75
2021/09/21 12:06:31;;;;;;;3.80;3.53;;;16.50;99.90;;;;;;4937998;29;20556;-75
2021/09/21 12:09:01;;;;;;;3.43;3.20;;;16.30;99.90;;;;;;4937969;29;20469;-75
2021/09/21 12:11:28;;;;;;;3.70;3.40;;;16.30;99.90;;;;;;4938184;29;20496;-75
2021/09/21 12:13:57;;;;;;;3.63;3.53;;;16.30;99.90;;;;;;4937517;29;20472;-74
2021/09/21 12:16:28;;;;;;;3.40;3.30;;;16.40;99.90;;;;;;4937045;29;20521;-75
2021/09/21 12:18:57;;;;;;;3.70;3.37;;;16.50;99.90;;;;;;4936322;28;20504;-75
2021/09/21 12:21:28;;;;;;;3.50;3.40;;;16.50;99.90;;;;;;4936762;29;20928;-75
2021/09/21 12:23:55;;;;;;;3.73;3.43;;;16.60;99.90;;;;;;4937726;29;20461;-75
2021/09/21 12:26:23;;;;;;;3.67;3.47;;;16.70;99.90;;;;;;4936827;29;20476;-74
2021/09/21 12:28:52;;;;;;;3.70;3.40;;;16.70;99.90;;;;;;4936592;28;20494;-74
2021/09/21 12:31:22;;;;;;;4.47;4.13;;;16.70;99.90;;;;;;4936030;29;20489;-74
2021/09/21 12:33:50;;;;;;;4.20;4.00;;;16.70;99.90;;;;;;4935607;29;20470;-73
2021/09/21 12:36:22;;;;;;;4.93;4.50;;;16.60;99.90;;;;;;4936491;29;20492;-73
2021/09/21 12:39:01;;;;;;;4.40;4.10;;;16.50;99.90;;;;;;4934354;29;20485;-73
2021/09/21 12:41:30;;;;;;;4.43;4.13;;;16.40;99.90;;;;;;4937312;29;20895;-73
2021/09/21 12:44:00;;;;;;;4.10;3.90;;;16.40;99.90;;;;;;4925227;29;20470;-73
2021/09/21 12:46:29;;;;;;;5.20;4.90;;;16.50;99.90;;;;;;4917063;29;20943;-71
2021/09/21 12:48:58;;;;;;;4.23;4.03;;;16.50;99.90;;;;;;4917081;29;20466;-72
2021/09/21 12:51:31;;;;;;;3.90;3.60;;;16.60;99.90;;;;;;4917485;29;20491;-72
2021/09/21 12:53:59;;;;;;;5.40;5.03;;;16.70;99.90;;;;;;4917942;29;20455;-72
2021/09/21 12:56:26;;;;;;;4.17;4.07;;;16.70;99.90;;;;;;4917301;29;20786;-72
2021/09/21 12:59:04;;;;;;;4.27;3.87;;;16.70;99.90;;;;;;4917631;29;20474;-72
2021/09/21 13:01:30;;;;;;;4.10;3.90;;;16.80;99.90;;;;;;4916149;29;20609;-72
2021/09/21 13:03:57;;;;;;;4.83;4.30;;;16.70;99.90;;;;;;4917570;29;20466;-73
2021/09/21 13:06:23;;;;;;;4.57;3.70;;;16.70;99.90;;;;;;4917952;29;20459;-74
2021/09/21 13:08:50;;;;;;;5.10;4.73;;;16.60;99.90;;;;;;4918250;29;20816;-74
2021/09/21 13:11:17;;;;;;;4.67;4.40;;;16.60;99.90;;;;;;4916843;29;21039;-74
2021/09/21 13:13:43;;;;;;;4.73;4.33;;;16.60;99.90;;;;;;4916815;29;20980;-74
2021/09/21 13:16:11;;;;;;;4.63;4.33;;;16.50;99.90;;;;;;4916348;29;20895;-74
2021/09/21 13:18:39;;;;;;;5.23;4.10;;;16.50;99.90;;;;;;4915986;29;20888;-74
2021/09/21 13:21:06;;;;;;;3.97;3.67;;;16.50;99.90;;;;;;4917079;29;20498;-74
2021/09/21 13:23:33;;;;;;;4.63;4.33;;;16.60;99.90;;;;;;4917622;29;20470;-75
2021/09/21 13:25:59;;;;;;;5.27;4.87;;;16.60;99.90;;;;;;4916949;29;20557;-73
2021/09/21 13:28:26;;;;;;;5.03;4.47;;;16.70;99.90;;;;;;4916568;29;20466;-74
2021/09/21 13:30:54;;;;;;;5.07;4.63;;;16.70;99.90;;;;;;4916157;29;20482;-74
2021/09/21 13:33:23;;;;;;;4.57;4.27;;;16.80;99.90;;;;;;4916050;29;20514;-73
2021/09/21 13:35:50;;;;;;;4.77;4.47;;;16.80;99.90;;;;;;4916527;29;20955;-74
2021/09/21 13:38:17;;;;;;;5.53;4.60;;;16.80;99.90;;;;;;4916963;29;20518;-74
2021/09/21 13:40:45;;;;;;;5.00;4.70;;;16.90;99.90;;;;;;4916594;29;20549;-73
2021/09/21 13:43:12;;;;;;;8.40;4.77;;;16.90;99.90;;;;;;4916470;29;20553;-74
2021/09/21 13:45:39;;;;;;;6.57;6.00;;;17.00;99.90;;;;;;4916411;29;20845;-74
2021/09/21 13:48:06;;;;;;;5.67;5.10;;;17.10;99.90;;;;;;4915887;29;20482;-72
2021/09/21 13:50:34;;;;;;;8.30;5.30;;;17.20;99.90;;;;;;4916302;29;20483;-73
2021/09/21 13:53:01;;;;;;;5.60;5.20;;;17.20;99.90;;;;;;4915985;29;20474;-72
2021/09/21 13:55:28;;;;;;;6.97;5.67;;;17.20;99.90;;;;;;4916049;29;20563;-73
2021/09/21 13:57:55;;;;;;;4.90;4.60;;;17.20;99.90;;;;;;4915921;29;20471;-72
2021/09/21 14:00:23;;;;;;;5.80;5.40;;;17.20;99.90;;;;;;4916350;29;20470;-72
2021/09/21 14:02:50;;;;;;;4.87;4.57;;;17.30;99.90;;;;;;4915427;29;20466;-72
2021/09/21 14:05:18;;;;;;;5.67;5.13;;;17.20;99.90;;;;;;4916578;29;20470;-72
2021/09/21 14:07:48;;;;;;;5.20;4.90;;;17.30;99.90;;;;;;4915980;29;20522;-72
2021/09/21 14:10:16;;;;;;;5.97;5.47;;;17.20;99.90;;;;;;4916373;29;20517;-73
2021/09/21 14:12:43;;;;;;;6.80;6.10;;;17.20;99.90;;;;;;4916065;29;20557;-73
2021/09/21 14:15:12;;;;;;;5.00;4.57;;;17.20;99.90;;;;;;4916405;29;20530;-72
2021/09/21 14:17:44;;;;;;;5.50;5.10;;;17.20;99.90;;;;;;4915750;29;20470;-73
2021/09/21 14:20:14;;;;;;;5.90;5.50;;;17.20;99.90;;;;;;4916343;29;20455;-72
2021/09/21 14:22:41;;;;;;;5.10;4.80;;;17.20;99.90;;;;;;4915524;29;20505;-73
2021/09/21 14:25:10;;;;;;;5.27;4.87;;;17.20;99.90;;;;;;4916624;29;20538;-72
2021/09/21 14:27:37;;;;;;;6.50;6.00;;;17.20;99.90;;;;;;4915983;29;20471;-72
2021/09/21 14:30:08;;;;;;;5.80;5.33;;;17.20;99.90;;;;;;4916358;29;20466;-71
2021/09/21 14:32:35;;;;;;;6.10;5.60;;;17.10;99.90;;;;;;4915523;29;20454;-72
2021/09/21 14:35:02;;;;;;;5.80;5.30;;;17.10;99.90;;;;;;4916717;29;20877;-72
2021/09/21 14:37:28;;;;;;;5.47;4.63;;;17.10;99.90;;;;;;4916596;29;20493;-73
2021/09/21 14:39:55;;;;;;;5.00;4.60;;;17.10;99.90;;;;;;4915803;29;20470;-73
2021/09/21 14:42:23;;;;;;;6.33;5.10;;;17.10;99.90;;;;;;4915261;29;20498;-73
2021/09/21 14:44:50;;;;;;;7.33;5.17;;;17.10;99.90;;;;;;4921659;29;20525;-72
2021/09/21 14:47:16;;;;;;;5.40;5.10;;;17.10;99.90;;;;;;4934225;29;20465;-72
2021/09/21 14:49:43;;;;;;;5.80;5.40;;;17.10;99.90;;;;;;4935927;29;20469;-73
2021/09/21 14:52:10;;;;;;;5.33;5.03;;;17.00;99.90;;;;;;4934968;28;20508;-73
2021/09/21 14:54:37;;;;;;;5.00;4.60;;;17.00;99.90;;;;;;4935565;29;20454;-71
2021/09/21 14:57:04;;;;;;;7.20;5.60;;;17.10;99.90;;;;;;4937402;29;20524;-73
2021/09/21 14:59:32;;;;;;;5.43;5.03;;;17.10;99.90;;;;;;4938933;29;20469;-73
2021/09/21 15:01:59;;;;;;;5.30;4.80;;;17.00;99.90;;;;;;4937215;29;21021;-72
2021/09/21 15:04:25;;;;;;;4.60;4.30;;;17.00;99.90;;;;;;4938069;29;20465;-72
2021/09/21 15:06:52;;;;;;;5.20;4.90;;;17.00;99.90;;;;;;4938632;29;20524;-72
2021/09/21 15:09:18;;;;;;;5.43;5.00;;;17.00;99.90;;;;;;4940036;29;20501;-73
2021/09/21 15:11:45;;;;;;;4.93;4.63;;;16.90;99.90;;;;;;4938986;29;20485;-73
2021/09/21 15:14:12;;;;;;;4.87;4.57;;;16.90;99.90;;;;;;4937968;29;21013;-72
2021/09/21 15:16:40;;;;;;;4.60;4.37;;;16.90;99.90;;;;;;4937149;29;20472;-71
2021/09/21 15:19:09;;;;;;;5.90;5.40;;;17.00;99.90;;;;;;4938169;29;20942;-73
2021/09/21 15:21:36;;;;;;;7.10;6.60;;;16.90;99.90;;;;;;4935501;29;20496;-72
2021/09/21 15:24:03;;;;;;;6.10;5.50;;;16.90;99.90;;;;;;4918842;29;20518;-73
2021/09/21 15:26:30;;;;;;;5.70;4.87;;;17.00;99.90;;;;;;4918988;29;20466;-73
2021/09/21 15:28:57;;;;;;;5.90;5.40;;;16.90;99.90;;;;;;4918666;29;20466;-72
2021/09/21 15:31:24;;;;;;;5.00;4.60;;;16.90;99.90;;;;;;4918255;29;20966;-73
2021/09/21 15:33:52;;;;;;;5.00;4.57;;;16.90;99.90;;;;;;4918470;29;20474;-72
2021/09/21 15:36:18;;;;;;;5.70;5.10;;;16.80;99.90;;;;;;4918766;29;21193;-73
2021/09/21 15:38:45;;;;;;;10.00;5.20;;;16.80;99.90;;;;;;4918919;29;20467;-73
2021/09/21 15:41:12;;;;;;;5.80;5.30;;;16.80;99.90;;;;;;4918514;29;20497;-74
2021/09/21 15:43:39;;;;;;;5.27;4.77;;;16.70;99.90;;;;;;4918383;29;20525;-74
2021/09/21 15:46:07;;;;;;;6.10;4.90;;;16.70;99.90;;;;;;4918447;29;20620;-72
2021/09/21 15:48:34;;;;;;;5.43;4.97;;;16.60;99.90;;;;;;4918593;29;20509;-72
2021/09/21 15:51:02;;;;;;;5.10;4.80;;;16.60;99.90;;;;;;4918714;29;20482;-73
2021/09/21 15:53:29;;;;;;;6.83;6.03;;;16.60;99.90;;;;;;4918632;29;20943;-73
2021/09/21 15:55:55;;;;;;;7.07;6.47;;;16.50;99.90;;;;;;4922583;29;20498;-73
2021/09/21 15:58:23;;;;;;;5.93;5.40;;;16.50;99.90;;;;;;4921934;29;20518;-73
2021/09/21 16:00:51;;;;;;;6.90;5.60;;;16.50;99.90;;;;;;4922007;29;20530;-73
2021/09/21 16:03:18;;;;;;;7.33;5.20;;;16.40;99.90;;;;;;4918908;29;20483;-73
2021/09/21 16:05:45;;;;;;;4.90;4.60;;;16.40;99.90;;;;;;4918371;29;20470;-73
2021/09/21 16:08:13;;;;;;;7.43;6.83;;;16.30;99.90;;;;;;4918087;29;20466;-73
2021/09/21 16:10:42;;;;;;;7.10;6.47;;;16.30;99.90;;;;;;4918277;29;20490;-73
2021/09/21 16:13:10;;;;;;;6.73;6.23;;;16.30;99.90;;;;;;4918139;29;20462;-73
2021/09/21 16:15:38;;;;;;;5.47;5.17;;;16.20;99.90;;;;;;4919322;29;20530;-74
2021/09/21 16:18:05;;;;;;;6.03;5.53;;;16.20;99.90;;;;;;4921866;29;20458;-74
2021/09/21 16:20:33;;;;;;;5.57;5.10;;;16.20;99.90;;;;;;4918414;29;20490;-74
2021/09/21 16:23:01;;;;;;;6.23;5.73;;;16.20;99.90;;;;;;4917321;29;20494;-73
2021/09/21 16:25:29;;;;;;;6.67;6.03;;;16.10;99.90;;;;;;4919597;29;20474;-73
2021/09/21 16:27:57;;;;;;;6.37;5.97;;;16.10;99.90;;;;;;4923451;29;20952;-73
2021/09/21 16:30:26;;;;;;;6.93;6.43;;;16.10;99.90;;;;;;4922710;29;20463;-74
2021/09/21 16:32:54;;;;;;;7.70;7.13;;;16.00;99.90;;;;;;4923388;29;20474;-72
2021/09/21 16:35:25;;;;;;;7.43;6.93;;;15.90;99.90;;;;;;4923643;29;20466;-73
2021/09/21 16:37:53;;;;;;;7.97;7.40;;;15.90;99.90;;;;;;4923752;29;20447;-72
2021/09/21 16:40:20;;;;;;;7.90;7.10;;;15.80;99.90;;;;;;4923249;29;20466;-72
2021/09/21 16:42:48;;;;;;;9.27;8.47;;;15.80;99.90;;;;;;4917362;29;20549;-73
2021/09/21 16:45:16;;;;;;;8.57;7.70;;;15.70;99.90;;;;;;4917723;29;20523;-72
2021/09/21 16:47:43;;;;;;;8.63;7.83;;;15.70;99.90;;;;;;4916621;29;20649;-71
2021/09/21 16:50:10;;;;;;;8.20;7.47;;;15.60;99.90;;;;;;4917709;29;20470;-72